sensor_id;sensor_type;location;lat;lon;timestamp;P1;durP1;ratioP1;P2;durP2;ratioP2
25905;SDS011;13713;52.552;13.204;2023-04-06T00:01:36;129.70;;;54.17;;
25905;SDS011;13713;52.552;13.204;2023-04-06T00:04:02;123.00;;;53.67;;
25905;SDS011;13713;52.552;13.204;2023-04-06T00:06:28;118.53;;;52.13;;
25905;SDS011;13713;52.552;13.204;2023-04-06T00:08:55;126.40;;;53.47;;
25905;SDS011;13713;52.552;13.204;2023-04-06T00:11:21;123.45;;;52.92;;
25905;SDS011;13713;52.552;13.204;2023-04-06T00:13:47;124.05;;;53.47;;
25905;SDS011;13713;52.552;13.204;2023-04-06T00:16:12;127.15;;;52.80;;
25905;SDS011;13713;52.552;13.204;2023-04-06T00:18:38;118.72;;;51.33;;
25905;SDS011;13713;52.552;13.204;2023-04-06T00:21:04;125.38;;;52.83;;
25905;SDS011;13713;52.552;13.204;2023-04-06T00:23:30;112.10;;;50.80;;
25905;SDS011;13713;52.552;13.204;2023-04-06T00:25:55;112.70;;;49.83;;
25905;SDS011;13713;52.552;13.204;2023-04-06T00:28:21;114.72;;;49.08;;
25905;SDS011;13713;52.552;13.204;2023-04-06T00:30:50;112.50;;;49.72;;
25905;SDS011;13713;52.552;13.204;2023-04-06T00:33:21;110.03;;;48.83;;
25905;SDS011;13713;52.552;13.204;2023-04-06T00:35:48;111.47;;;48.97;;
25905;SDS011;13713;52.552;13.204;2023-04-06T00:38:14;113.82;;;48.85;;
25905;SDS011;13713;52.552;13.204;2023-04-06T00:40:40;111.97;;;47.28;;
25905;SDS011;13713;52.552;13.204;2023-04-06T00:43:06;104.15;;;47.22;;
25905;SDS011;13713;52.552;13.204;2023-04-06T00:45:34;106.78;;;46.88;;
25905;SDS011;13713;52.552;13.204;2023-04-06T00:48:00;106.80;;;47.83;;
25905;SDS011;13713;52.552;13.204;2023-04-06T00:50:27;112.00;;;46.28;;
25905;SDS011;13713;52.552;13.204;2023-04-06T00:52:53;103.30;;;47.22;;
25905;SDS011;13713;52.552;13.204;2023-04-06T00:55:25;109.65;;;46.22;;
25905;SDS011;13713;52.552;13.204;2023-04-06T00:57:52;108.25;;;47.88;;
25905;SDS011;13713;52.552;13.204;2023-04-06T01:00:18;102.47;;;45.55;;
25905;SDS011;13713;52.552;13.204;2023-04-06T01:02:45;104.45;;;45.88;;
25905;SDS011;13713;52.552;13.204;2023-04-06T01:05:16;107.72;;;47.33;;
25905;SDS011;13713;52.552;13.204;2023-04-06T01:07:54;93.65;;;43.25;;
25905;SDS011;13713;52.552;13.204;2023-04-06T01:10:24;95.75;;;44.20;;
25905;SDS011;13713;52.552;13.204;2023-04-06T01:12:57;95.57;;;43.40;;
25905;SDS011;13713;52.552;13.204;2023-04-06T01:15:49;92.05;;;43.03;;
25905;SDS011;13713;52.552;13.204;2023-04-06T01:18:27;90.32;;;42.97;;
25905;SDS011;13713;52.552;13.204;2023-04-06T01:21:14;91.10;;;42.40;;
25905;SDS011;13713;52.552;13.204;2023-04-06T01:23:51;98.95;;;43.92;;
25905;SDS011;13713;52.552;13.204;2023-04-06T01:26:24;94.75;;;42.00;;
25905;SDS011;13713;52.552;13.204;2023-04-06T01:28:52;90.45;;;41.42;;
25905;SDS011;13713;52.552;13.204;2023-04-06T01:31:28;89.07;;;41.30;;
25905;SDS011;13713;52.552;13.204;2023-04-06T01:33:54;97.00;;;42.25;;
25905;SDS011;13713;52.552;13.204;2023-04-06T01:36:23;92.32;;;40.35;;
25905;SDS011;13713;52.552;13.204;2023-04-06T01:38:58;89.07;;;40.35;;
25905;SDS011;13713;52.552;13.204;2023-04-06T01:41:31;92.85;;;42.67;;
25905;SDS011;13713;52.552;13.204;2023-04-06T01:43:57;86.07;;;38.95;;
25905;SDS011;13713;52.552;13.204;2023-04-06T01:46:26;88.00;;;39.05;;
25905;SDS011;13713;52.552;13.204;2023-04-06T01:48:53;79.28;;;39.33;;
25905;SDS011;13713;52.552;13.204;2023-04-06T01:51:29;85.07;;;38.85;;
25905;SDS011;13713;52.552;13.204;2023-04-06T01:53:58;83.03;;;39.28;;
25905;SDS011;13713;52.552;13.204;2023-04-06T01:56:34;82.32;;;38.08;;
25905;SDS011;13713;52.552;13.204;2023-04-06T01:59:10;83.50;;;39.03;;
25905;SDS011;13713;52.552;13.204;2023-04-06T02:01:40;78.25;;;36.45;;
25905;SDS011;13713;52.552;13.204;2023-04-06T02:04:05;81.03;;;38.05;;
25905;SDS011;13713;52.552;13.204;2023-04-06T02:06:31;77.18;;;36.22;;
25905;SDS011;13713;52.552;13.204;2023-04-06T02:08:58;78.55;;;37.80;;
25905;SDS011;13713;52.552;13.204;2023-04-06T02:11:24;74.57;;;36.35;;
25905;SDS011;13713;52.552;13.204;2023-04-06T02:13:54;77.65;;;36.72;;
25905;SDS011;13713;52.552;13.204;2023-04-06T02:16:24;81.68;;;37.63;;
25905;SDS011;13713;52.552;13.204;2023-04-06T02:18:50;82.05;;;36.95;;
25905;SDS011;13713;52.552;13.204;2023-04-06T02:21:17;78.38;;;37.05;;
25905;SDS011;13713;52.552;13.204;2023-04-06T02:23:45;74.60;;;35.80;;
25905;SDS011;13713;52.552;13.204;2023-04-06T02:26:12;66.40;;;33.95;;
25905;SDS011;13713;52.552;13.204;2023-04-06T02:28:38;72.53;;;34.85;;
25905;SDS011;13713;52.552;13.204;2023-04-06T02:31:05;74.88;;;36.10;;
25905;SDS011;13713;52.552;13.204;2023-04-06T02:33:30;75.40;;;35.92;;
25905;SDS011;13713;52.552;13.204;2023-04-06T02:35:56;69.43;;;33.45;;
25905;SDS011;13713;52.552;13.204;2023-04-06T02:38:22;75.53;;;34.63;;
25905;SDS011;13713;52.552;13.204;2023-04-06T02:40:50;71.57;;;34.28;;
25905;SDS011;13713;52.552;13.204;2023-04-06T02:45:52;69.57;;;33.60;;
25905;SDS011;13713;52.552;13.204;2023-04-06T02:48:19;66.85;;;32.95;;
25905;SDS011;13713;52.552;13.204;2023-04-06T02:50:45;65.47;;;32.78;;
25905;SDS011;13713;52.552;13.204;2023-04-06T02:53:11;65.70;;;33.00;;
25905;SDS011;13713;52.552;13.204;2023-04-06T02:55:38;72.18;;;34.50;;
25905;SDS011;13713;52.552;13.204;2023-04-06T02:58:04;63.80;;;33.15;;
25905;SDS011;13713;52.552;13.204;2023-04-06T03:00:38;60.50;;;31.33;;
25905;SDS011;13713;52.552;13.204;2023-04-06T03:03:03;67.65;;;31.30;;
25905;SDS011;13713;52.552;13.204;2023-04-06T03:05:29;61.45;;;30.98;;
25905;SDS011;13713;52.552;13.204;2023-04-06T03:07:55;66.90;;;31.92;;
25905;SDS011;13713;52.552;13.204;2023-04-06T03:10:31;63.63;;;32.08;;
25905;SDS011;13713;52.552;13.204;2023-04-06T03:12:57;63.22;;;30.80;;
25905;SDS011;13713;52.552;13.204;2023-04-06T03:15:35;56.20;;;30.17;;
25905;SDS011;13713;52.552;13.204;2023-04-06T03:18:10;58.35;;;30.80;;
25905;SDS011;13713;52.552;13.204;2023-04-06T03:20:41;62.60;;;31.13;;
25905;SDS011;13713;52.552;13.204;2023-04-06T03:23:08;58.78;;;30.17;;
25905;SDS011;13713;52.552;13.204;2023-04-06T03:25:38;57.33;;;29.52;;
25905;SDS011;13713;52.552;13.204;2023-04-06T03:28:09;63.22;;;30.77;;
25905;SDS011;13713;52.552;13.204;2023-04-06T03:30:43;60.75;;;29.80;;
25905;SDS011;13713;52.552;13.204;2023-04-06T03:33:10;63.45;;;30.30;;
25905;SDS011;13713;52.552;13.204;2023-04-06T03:35:46;57.88;;;28.58;;
25905;SDS011;13713;52.552;13.204;2023-04-06T03:38:11;61.35;;;29.52;;
25905;SDS011;13713;52.552;13.204;2023-04-06T03:40:37;60.85;;;28.88;;
25905;SDS011;13713;52.552;13.204;2023-04-06T03:43:03;57.53;;;29.80;;
25905;SDS011;13713;52.552;13.204;2023-04-06T03:45:33;67.40;;;33.70;;
25905;SDS011;13713;52.552;13.204;2023-04-06T03:47:59;79.93;;;42.17;;
25905;SDS011;13713;52.552;13.204;2023-04-06T03:50:24;114.50;;;42.90;;
25905;SDS011;13713;52.552;13.204;2023-04-06T03:52:50;128.13;;;47.45;;
25905;SDS011;13713;52.552;13.204;2023-04-06T03:55:16;102.95;;;43.03;;
25905;SDS011;13713;52.552;13.204;2023-04-06T03:57:41;123.80;;;47.70;;
25905;SDS011;13713;52.552;13.204;2023-04-06T04:00:07;119.13;;;45.72;;
25905;SDS011;13713;52.552;13.204;2023-04-06T04:02:39;151.07;;;51.15;;
25905;SDS011;13713;52.552;13.204;2023-04-06T04:05:05;181.38;;;57.05;;
25905;SDS011;13713;52.552;13.204;2023-04-06T04:07:31;175.10;;;58.92;;
25905;SDS011;13713;52.552;13.204;2023-04-06T04:09:58;170.55;;;55.05;;
25905;SDS011;13713;52.552;13.204;2023-04-06T04:12:24;200.43;;;59.78;;
25905;SDS011;13713;52.552;13.204;2023-04-06T04:14:49;175.77;;;59.38;;
25905;SDS011;13713;52.552;13.204;2023-04-06T04:17:15;221.57;;;65.32;;
25905;SDS011;13713;52.552;13.204;2023-04-06T04:19:41;209.40;;;68.82;;
25905;SDS011;13713;52.552;13.204;2023-04-06T04:22:07;223.20;;;66.68;;
25905;SDS011;13713;52.552;13.204;2023-04-06T04:24:37;223.57;;;66.35;;
25905;SDS011;13713;52.552;13.204;2023-04-06T04:27:03;244.27;;;77.80;;
25905;SDS011;13713;52.552;13.204;2023-04-06T04:29:31;264.17;;;76.50;;
25905;SDS011;13713;52.552;13.204;2023-04-06T04:32:01;228.80;;;73.50;;
25905;SDS011;13713;52.552;13.204;2023-04-06T04:34:29;271.10;;;83.53;;
25905;SDS011;13713;52.552;13.204;2023-04-06T04:36:55;273.60;;;87.53;;
25905;SDS011;13713;52.552;13.204;2023-04-06T04:39:32;266.05;;;84.80;;
25905;SDS011;13713;52.552;13.204;2023-04-06T04:42:03;288.53;;;90.20;;
25905;SDS011;13713;52.552;13.204;2023-04-06T04:44:30;320.90;;;95.47;;
25905;SDS011;13713;52.552;13.204;2023-04-06T04:50:45;314.20;;;97.20;;
25905;SDS011;13713;52.552;13.204;2023-04-06T04:53:12;312.50;;;98.05;;
25905;SDS011;13713;52.552;13.204;2023-04-06T04:55:39;319.90;;;100.03;;
25905;SDS011;13713;52.552;13.204;2023-04-06T04:58:06;347.75;;;106.72;;
25905;SDS011;13713;52.552;13.204;2023-04-06T05:00:46;348.83;;;105.72;;
25905;SDS011;13713;52.552;13.204;2023-04-06T05:03:14;369.92;;;110.57;;
25905;SDS011;13713;52.552;13.204;2023-04-06T05:05:53;358.70;;;113.47;;
25905;SDS011;13713;52.552;13.204;2023-04-06T05:08:23;348.95;;;110.97;;
25905;SDS011;13713;52.552;13.204;2023-04-06T05:10:48;372.63;;;114.55;;
25905;SDS011;13713;52.552;13.204;2023-04-06T05:13:15;351.40;;;111.00;;
25905;SDS011;13713;52.552;13.204;2023-04-06T05:15:43;345.30;;;110.93;;
25905;SDS011;13713;52.552;13.204;2023-04-06T05:18:21;379.35;;;116.82;;
25905;SDS011;13713;52.552;13.204;2023-04-06T05:20:48;379.65;;;117.93;;
25905;SDS011;13713;52.552;13.204;2023-04-06T05:23:15;405.00;;;119.18;;
25905;SDS011;13713;52.552;13.204;2023-04-06T05:25:42;366.50;;;116.38;;
25905;SDS011;13713;52.552;13.204;2023-04-06T05:28:18;364.05;;;117.30;;
25905;SDS011;13713;52.552;13.204;2023-04-06T05:30:44;403.98;;;120.15;;
25905;SDS011;13713;52.552;13.204;2023-04-06T05:33:12;384.73;;;120.72;;
25905;SDS011;13713;52.552;13.204;2023-04-06T05:38:19;400.23;;;122.95;;
25905;SDS011;13713;52.552;13.204;2023-04-06T05:40:46;377.48;;;119.30;;
25905;SDS011;13713;52.552;13.204;2023-04-06T05:43:16;387.02;;;117.45;;
25905;SDS011;13713;52.552;13.204;2023-04-06T05:45:46;378.40;;;118.15;;
25905;SDS011;13713;52.552;13.204;2023-04-06T05:48:12;403.33;;;123.20;;
25905;SDS011;13713;52.552;13.204;2023-04-06T05:50:38;393.05;;;126.82;;
25905;SDS011;13713;52.552;13.204;2023-04-06T05:53:05;413.33;;;129.05;;
25905;SDS011;13713;52.552;13.204;2023-04-06T05:55:37;406.77;;;130.05;;
25905;SDS011;13713;52.552;13.204;2023-04-06T05:58:14;418.02;;;135.30;;
25905;SDS011;13713;52.552;13.204;2023-04-06T06:00:42;416.80;;;136.10;;
25905;SDS011;13713;52.552;13.204;2023-04-06T06:03:13;409.60;;;132.50;;
25905;SDS011;13713;52.552;13.204;2023-04-06T06:05:45;401.02;;;127.82;;
25905;SDS011;13713;52.552;13.204;2023-04-06T06:08:17;407.98;;;134.15;;
25905;SDS011;13713;52.552;13.204;2023-04-06T06:10:45;421.08;;;132.93;;
25905;SDS011;13713;52.552;13.204;2023-04-06T06:13:12;400.25;;;133.10;;
25905;SDS011;13713;52.552;13.204;2023-04-06T06:15:37;402.90;;;134.32;;
25905;SDS011;13713;52.552;13.204;2023-04-06T06:18:03;401.58;;;133.73;;
25905;SDS011;13713;52.552;13.204;2023-04-06T06:20:30;427.63;;;138.50;;
25905;SDS011;13713;52.552;13.204;2023-04-06T06:22:59;415.77;;;135.50;;
25905;SDS011;13713;52.552;13.204;2023-04-06T06:25:25;414.90;;;136.23;;
25905;SDS011;13713;52.552;13.204;2023-04-06T06:27:51;396.33;;;132.45;;
25905;SDS011;13713;52.552;13.204;2023-04-06T06:30:18;430.73;;;154.82;;
25905;SDS011;13713;52.552;13.204;2023-04-06T06:32:44;413.10;;;146.77;;
25905;SDS011;13713;52.552;13.204;2023-04-06T06:35:11;410.88;;;144.27;;
25905;SDS011;13713;52.552;13.204;2023-04-06T06:37:37;438.90;;;160.52;;
25905;SDS011;13713;52.552;13.204;2023-04-06T06:40:04;452.52;;;160.63;;
25905;SDS011;13713;52.552;13.204;2023-04-06T06:42:32;460.25;;;169.40;;
25905;SDS011;13713;52.552;13.204;2023-04-06T06:45:17;442.33;;;148.80;;
25905;SDS011;13713;52.552;13.204;2023-04-06T06:47:44;421.77;;;148.52;;
25905;SDS011;13713;52.552;13.204;2023-04-06T06:50:10;435.80;;;151.82;;
25905;SDS011;13713;52.552;13.204;2023-04-06T06:52:36;425.55;;;153.90;;
25905;SDS011;13713;52.552;13.204;2023-04-06T06:55:02;453.02;;;176.98;;
25905;SDS011;13713;52.552;13.204;2023-04-06T06:57:28;441.42;;;162.15;;
25905;SDS011;13713;52.552;13.204;2023-04-06T06:59:54;442.58;;;162.57;;
25905;SDS011;13713;52.552;13.204;2023-04-06T07:02:21;466.02;;;177.88;;
25905;SDS011;13713;52.552;13.204;2023-04-06T07:04:49;433.63;;;162.45;;
25905;SDS011;13713;52.552;13.204;2023-04-06T07:07:15;431.40;;;158.02;;
25905;SDS011;13713;52.552;13.204;2023-04-06T07:09:41;419.85;;;157.20;;
25905;SDS011;13713;52.552;13.204;2023-04-06T07:12:07;392.15;;;153.88;;
25905;SDS011;13713;52.552;13.204;2023-04-06T07:14:33;410.88;;;159.13;;
25905;SDS011;13713;52.552;13.204;2023-04-06T07:16:59;444.13;;;187.15;;
25905;SDS011;13713;52.552;13.204;2023-04-06T07:19:24;428.38;;;174.93;;
25905;SDS011;13713;52.552;13.204;2023-04-06T07:21:50;431.80;;;176.90;;
25905;SDS011;13713;52.552;13.204;2023-04-06T07:24:16;413.33;;;168.18;;
25905;SDS011;13713;52.552;13.204;2023-04-06T07:26:42;416.20;;;172.48;;
25905;SDS011;13713;52.552;13.204;2023-04-06T07:29:08;429.92;;;176.02;;
25905;SDS011;13713;52.552;13.204;2023-04-06T07:31:33;418.58;;;174.52;;
25905;SDS011;13713;52.552;13.204;2023-04-06T07:34:01;413.92;;;171.30;;
25905;SDS011;13713;52.552;13.204;2023-04-06T07:36:27;400.75;;;174.85;;
25905;SDS011;13713;52.552;13.204;2023-04-06T07:38:53;406.05;;;179.98;;
25905;SDS011;13713;52.552;13.204;2023-04-06T07:41:20;401.55;;;172.43;;
25905;SDS011;13713;52.552;13.204;2023-04-06T07:43:47;404.48;;;173.57;;
25905;SDS011;13713;52.552;13.204;2023-04-06T07:46:13;422.38;;;171.10;;
25905;SDS011;13713;52.552;13.204;2023-04-06T07:48:38;402.40;;;168.07;;
25905;SDS011;13713;52.552;13.204;2023-04-06T07:51:05;384.40;;;165.35;;
25905;SDS011;13713;52.552;13.204;2023-04-06T07:53:37;382.25;;;164.05;;
25905;SDS011;13713;52.552;13.204;2023-04-06T07:56:03;390.90;;;164.70;;
25905;SDS011;13713;52.552;13.204;2023-04-06T07:58:29;393.23;;;166.93;;
25905;SDS011;13713;52.552;13.204;2023-04-06T08:00:54;422.20;;;182.95;;
25905;SDS011;13713;52.552;13.204;2023-04-06T08:03:20;396.98;;;179.73;;
25905;SDS011;13713;52.552;13.204;2023-04-06T08:05:50;388.58;;;165.02;;
25905;SDS011;13713;52.552;13.204;2023-04-06T08:08:16;382.98;;;159.52;;
25905;SDS011;13713;52.552;13.204;2023-04-06T08:10:42;378.85;;;160.02;;
25905;SDS011;13713;52.552;13.204;2023-04-06T08:13:07;379.70;;;163.98;;
25905;SDS011;13713;52.552;13.204;2023-04-06T08:15:33;385.88;;;164.30;;
25905;SDS011;13713;52.552;13.204;2023-04-06T08:17:59;381.95;;;162.70;;
25905;SDS011;13713;52.552;13.204;2023-04-06T08:20:25;365.25;;;162.05;;
25905;SDS011;13713;52.552;13.204;2023-04-06T08:22:50;361.00;;;154.10;;
25905;SDS011;13713;52.552;13.204;2023-04-06T08:25:16;354.13;;;152.48;;
25905;SDS011;13713;52.552;13.204;2023-04-06T08:27:42;355.60;;;155.38;;
25905;SDS011;13713;52.552;13.204;2023-04-06T08:30:08;352.65;;;157.15;;
25905;SDS011;13713;52.552;13.204;2023-04-06T08:32:34;371.30;;;155.52;;
25905;SDS011;13713;52.552;13.204;2023-04-06T08:34:59;367.13;;;162.57;;
25905;SDS011;13713;52.552;13.204;2023-04-06T08:37:25;368.88;;;164.18;;
25905;SDS011;13713;52.552;13.204;2023-04-06T08:39:51;365.98;;;157.25;;
25905;SDS011;13713;52.552;13.204;2023-04-06T08:42:20;360.35;;;156.95;;
25905;SDS011;13713;52.552;13.204;2023-04-06T08:44:48;365.67;;;157.32;;
25905;SDS011;13713;52.552;13.204;2023-04-06T08:47:15;338.60;;;155.07;;
25905;SDS011;13713;52.552;13.204;2023-04-06T08:49:40;359.88;;;156.38;;
25905;SDS011;13713;52.552;13.204;2023-04-06T08:52:08;346.17;;;147.43;;
25905;SDS011;13713;52.552;13.204;2023-04-06T08:54:36;336.40;;;150.05;;
25905;SDS011;13713;52.552;13.204;2023-04-06T08:57:02;353.50;;;149.73;;
25905;SDS011;13713;52.552;13.204;2023-04-06T08:59:29;353.88;;;161.05;;
25905;SDS011;13713;52.552;13.204;2023-04-06T09:01:56;376.48;;;163.05;;
25905;SDS011;13713;52.552;13.204;2023-04-06T09:04:22;376.73;;;164.25;;
25905;SDS011;13713;52.552;13.204;2023-04-06T09:06:48;368.77;;;161.05;;
25905;SDS011;13713;52.552;13.204;2023-04-06T09:09:15;383.08;;;165.98;;
25905;SDS011;13713;52.552;13.204;2023-04-06T09:11:44;400.15;;;168.98;;
25905;SDS011;13713;52.552;13.204;2023-04-06T09:14:15;375.73;;;165.48;;
25905;SDS011;13713;52.552;13.204;2023-04-06T09:16:42;386.35;;;167.88;;
25905;SDS011;13713;52.552;13.204;2023-04-06T09:19:10;384.08;;;170.07;;
25905;SDS011;13713;52.552;13.204;2023-04-06T09:21:36;419.10;;;181.82;;
25905;SDS011;13713;52.552;13.204;2023-04-06T09:24:03;419.98;;;186.60;;
25905;SDS011;13713;52.552;13.204;2023-04-06T09:26:30;411.63;;;181.10;;
25905;SDS011;13713;52.552;13.204;2023-04-06T09:28:58;431.15;;;191.05;;
25905;SDS011;13713;52.552;13.204;2023-04-06T09:31:27;417.73;;;194.60;;
25905;SDS011;13713;52.552;13.204;2023-04-06T09:33:54;418.33;;;195.73;;
25905;SDS011;13713;52.552;13.204;2023-04-06T09:36:36;447.27;;;204.18;;
25905;SDS011;13713;52.552;13.204;2023-04-06T09:39:05;473.30;;;223.40;;
25905;SDS011;13713;52.552;13.204;2023-04-06T09:41:32;463.13;;;212.68;;
25905;SDS011;13713;52.552;13.204;2023-04-06T09:46:33;441.60;;;205.52;;
25905;SDS011;13713;52.552;13.204;2023-04-06T09:49:06;433.55;;;194.23;;
25905;SDS011;13713;52.552;13.204;2023-04-06T09:51:36;436.00;;;200.98;;
25905;SDS011;13713;52.552;13.204;2023-04-06T09:54:04;431.75;;;199.65;;
25905;SDS011;13713;52.552;13.204;2023-04-06T09:56:33;428.20;;;207.00;;
25905;SDS011;13713;52.552;13.204;2023-04-06T09:59:10;413.45;;;189.10;;
25905;SDS011;13713;52.552;13.204;2023-04-06T10:01:39;449.40;;;210.30;;
25905;SDS011;13713;52.552;13.204;2023-04-06T10:04:09;428.30;;;200.63;;
25905;SDS011;13713;52.552;13.204;2023-04-06T10:06:39;316.55;;;150.38;;
25905;SDS011;13713;52.552;13.204;2023-04-06T10:09:06;283.48;;;121.10;;
25905;SDS011;13713;52.552;13.204;2023-04-06T10:11:33;264.92;;;123.45;;
25905;SDS011;13713;52.552;13.204;2023-04-06T10:13:59;278.70;;;124.35;;
25905;SDS011;13713;52.552;13.204;2023-04-06T10:16:26;222.50;;;99.07;;
25905;SDS011;13713;52.552;13.204;2023-04-06T10:18:57;209.00;;;99.70;;
25905;SDS011;13713;52.552;13.204;2023-04-06T10:21:28;253.13;;;114.13;;
25905;SDS011;13713;52.552;13.204;2023-04-06T10:24:06;266.17;;;117.50;;
25905;SDS011;13713;52.552;13.204;2023-04-06T10:26:35;259.08;;;119.22;;
25905;SDS011;13713;52.552;13.204;2023-04-06T10:29:02;268.33;;;117.70;;
25905;SDS011;13713;52.552;13.204;2023-04-06T10:31:29;257.67;;;119.85;;
25905;SDS011;13713;52.552;13.204;2023-04-06T10:33:55;244.25;;;115.32;;
25905;SDS011;13713;52.552;13.204;2023-04-06T10:36:31;255.70;;;116.18;;
25905;SDS011;13713;52.552;13.204;2023-04-06T10:38:59;255.68;;;109.70;;
25905;SDS011;13713;52.552;13.204;2023-04-06T10:41:40;258.30;;;113.40;;
25905;SDS011;13713;52.552;13.204;2023-04-06T10:44:07;266.60;;;113.25;;
25905;SDS011;13713;52.552;13.204;2023-04-06T10:46:33;281.83;;;125.13;;
25905;SDS011;13713;52.552;13.204;2023-04-06T10:49:32;253.13;;;116.88;;
25905;SDS011;13713;52.552;13.204;2023-04-06T10:51:52;253.65;;;116.88;;
25905;SDS011;13713;52.552;13.204;2023-04-06T10:54:20;273.05;;;123.50;;
25905;SDS011;13713;52.552;13.204;2023-04-06T10:56:48;280.40;;;131.77;;
25905;SDS011;13713;52.552;13.204;2023-04-06T10:59:18;266.25;;;122.32;;
25905;SDS011;13713;52.552;13.204;2023-04-06T11:01:47;298.05;;;131.02;;
25905;SDS011;13713;52.552;13.204;2023-04-06T11:04:15;301.05;;;131.95;;
25905;SDS011;13713;52.552;13.204;2023-04-06T11:06:45;307.40;;;137.43;;
25905;SDS011;13713;52.552;13.204;2023-04-06T11:09:22;310.67;;;146.43;;
25905;SDS011;13713;52.552;13.204;2023-04-06T11:11:52;267.02;;;127.57;;
25905;SDS011;13713;52.552;13.204;2023-04-06T11:14:18;268.25;;;123.22;;
25905;SDS011;13713;52.552;13.204;2023-04-06T11:16:45;284.25;;;134.63;;
25905;SDS011;13713;52.552;13.204;2023-04-06T11:19:13;287.70;;;132.18;;
25905;SDS011;13713;52.552;13.204;2023-04-06T11:21:43;281.80;;;130.32;;
25905;SDS011;13713;52.552;13.204;2023-04-06T11:24:16;309.98;;;134.15;;
25905;SDS011;13713;52.552;13.204;2023-04-06T11:26:45;317.70;;;137.27;;
25905;SDS011;13713;52.552;13.204;2023-04-06T11:29:14;296.40;;;134.63;;
25905;SDS011;13713;52.552;13.204;2023-04-06T11:32:00;292.63;;;132.98;;
25905;SDS011;13713;52.552;13.204;2023-04-06T11:34:28;314.10;;;136.98;;
25905;SDS011;13713;52.552;13.204;2023-04-06T11:36:56;323.45;;;142.73;;
25905;SDS011;13713;52.552;13.204;2023-04-06T11:39:24;351.65;;;156.48;;
25905;SDS011;13713;52.552;13.204;2023-04-06T11:41:52;346.52;;;153.85;;
25905;SDS011;13713;52.552;13.204;2023-04-06T11:44:33;354.33;;;151.32;;
25905;SDS011;13713;52.552;13.204;2023-04-06T11:47:03;365.90;;;161.40;;
25905;SDS011;13713;52.552;13.204;2023-04-06T11:49:31;371.50;;;171.57;;
25905;SDS011;13713;52.552;13.204;2023-04-06T11:51:58;402.08;;;172.82;;
25905;SDS011;13713;52.552;13.204;2023-04-06T11:54:36;375.40;;;171.73;;
25905;SDS011;13713;52.552;13.204;2023-04-06T11:57:03;419.25;;;192.98;;
25905;SDS011;13713;52.552;13.204;2023-04-06T11:59:29;406.75;;;184.95;;
25905;SDS011;13713;52.552;13.204;2023-04-06T12:02:00;405.20;;;189.52;;
25905;SDS011;13713;52.552;13.204;2023-04-06T12:04:27;425.60;;;193.13;;
25905;SDS011;13713;52.552;13.204;2023-04-06T12:06:52;427.23;;;191.13;;
25905;SDS011;13713;52.552;13.204;2023-04-06T12:09:18;422.15;;;195.10;;
25905;SDS011;13713;52.552;13.204;2023-04-06T12:11:44;437.75;;;200.80;;
25905;SDS011;13713;52.552;13.204;2023-04-06T12:14:10;401.17;;;194.77;;
25905;SDS011;13713;52.552;13.204;2023-04-06T12:16:36;409.95;;;188.20;;
25905;SDS011;13713;52.552;13.204;2023-04-06T12:19:02;403.77;;;189.15;;
25905;SDS011;13713;52.552;13.204;2023-04-06T12:21:28;426.20;;;186.48;;
25905;SDS011;13713;52.552;13.204;2023-04-06T12:23:56;414.75;;;183.68;;
25905;SDS011;13713;52.552;13.204;2023-04-06T12:26:22;386.60;;;178.23;;
25905;SDS011;13713;52.552;13.204;2023-04-06T12:28:48;347.23;;;159.73;;
25905;SDS011;13713;52.552;13.204;2023-04-06T12:31:14;354.92;;;165.35;;
25905;SDS011;13713;52.552;13.204;2023-04-06T12:33:41;368.83;;;163.40;;
25905;SDS011;13713;52.552;13.204;2023-04-06T12:36:11;333.02;;;154.95;;
25905;SDS011;13713;52.552;13.204;2023-04-06T12:38:38;321.02;;;153.55;;
25905;SDS011;13713;52.552;13.204;2023-04-06T12:41:05;347.02;;;152.05;;
25905;SDS011;13713;52.552;13.204;2023-04-06T12:43:30;301.02;;;135.40;;
25905;SDS011;13713;52.552;13.204;2023-04-06T12:45:56;323.05;;;146.25;;
25905;SDS011;13713;52.552;13.204;2023-04-06T12:48:22;310.52;;;149.88;;
25905;SDS011;13713;52.552;13.204;2023-04-06T12:50:54;324.75;;;155.68;;
25905;SDS011;13713;52.552;13.204;2023-04-06T12:53:24;359.98;;;160.43;;
25905;SDS011;13713;52.552;13.204;2023-04-06T12:55:50;350.13;;;164.40;;
25905;SDS011;13713;52.552;13.204;2023-04-06T12:58:16;367.33;;;173.52;;
25905;SDS011;13713;52.552;13.204;2023-04-06T13:00:43;383.55;;;169.82;;
25905;SDS011;13713;52.552;13.204;2023-04-06T13:03:08;381.95;;;187.93;;
25905;SDS011;13713;52.552;13.204;2023-04-06T13:05:34;382.38;;;177.00;;
25905;SDS011;13713;52.552;13.204;2023-04-06T13:08:00;413.63;;;190.30;;
25905;SDS011;13713;52.552;13.204;2023-04-06T13:10:26;399.95;;;185.02;;
25905;SDS011;13713;52.552;13.204;2023-04-06T13:12:52;417.10;;;181.75;;
25905;SDS011;13713;52.552;13.204;2023-04-06T13:15:17;402.63;;;190.82;;
25905;SDS011;13713;52.552;13.204;2023-04-06T13:17:43;415.85;;;195.57;;
25905;SDS011;13713;52.552;13.204;2023-04-06T13:20:09;421.80;;;197.52;;
25905;SDS011;13713;52.552;13.204;2023-04-06T13:22:35;407.48;;;195.25;;
25905;SDS011;13713;52.552;13.204;2023-04-06T13:25:01;428.27;;;197.68;;
25905;SDS011;13713;52.552;13.204;2023-04-06T13:27:27;442.50;;;212.25;;
25905;SDS011;13713;52.552;13.204;2023-04-06T13:29:53;444.52;;;212.48;;
25905;SDS011;13713;52.552;13.204;2023-04-06T13:32:20;428.00;;;211.88;;
25905;SDS011;13713;52.552;13.204;2023-04-06T13:34:45;442.63;;;215.25;;
25905;SDS011;13713;52.552;13.204;2023-04-06T13:37:13;449.40;;;223.35;;
25905;SDS011;13713;52.552;13.204;2023-04-06T13:39:39;472.80;;;226.65;;
25905;SDS011;13713;52.552;13.204;2023-04-06T13:42:05;435.52;;;218.73;;
25905;SDS011;13713;52.552;13.204;2023-04-06T13:44:31;445.25;;;222.68;;
25905;SDS011;13713;52.552;13.204;2023-04-06T13:46:57;437.85;;;217.40;;
25905;SDS011;13713;52.552;13.204;2023-04-06T13:49:23;433.15;;;215.13;;
25905;SDS011;13713;52.552;13.204;2023-04-06T13:51:49;441.67;;;232.07;;
25905;SDS011;13713;52.552;13.204;2023-04-06T13:54:15;427.17;;;212.60;;
25905;SDS011;13713;52.552;13.204;2023-04-06T13:56:41;413.77;;;212.32;;
25905;SDS011;13713;52.552;13.204;2023-04-06T13:59:06;417.38;;;217.13;;
25905;SDS011;13713;52.552;13.204;2023-04-06T14:01:32;429.20;;;221.50;;
25905;SDS011;13713;52.552;13.204;2023-04-06T14:03:58;474.65;;;262.33;;
25905;SDS011;13713;52.552;13.204;2023-04-06T14:06:23;428.05;;;229.02;;
25905;SDS011;13713;52.552;13.204;2023-04-06T14:08:49;484.42;;;268.27;;